Time;durP1;ratioP1;P1;durP2;ratioP2;P2;SDS_P1;SDS_P2;PMS_P1;PMS_P2;Temp;Humidity;BMP_temperature;BMP_pressure;BME280_temperature;BME280_humidity;BME280_pressure;Samples;Min_cycle;Max_cycle;Signal;HPM_P1;HPM_P2
2023/05/10 00:02:25;;;;;;;;;;;;;;;21.33;30.88;98442.25;5049157;28;1885;-76
2023/05/10 00:04:51;;;;;;;;;;;;;;;21.37;30.83;98442.19;5021010;28;977;-75
2023/05/10 00:07:17;;;;;;;;;;;;;;;21.57;30.41;98433.72;5032086;28;1138;-75
2023/05/10 00:09:43;;;;;;;;;;;;;;;21.60;30.36;98432.84;5031263;28;1093;-76
2023/05/10 00:12:08;;;;;;;;;;;;;;;21.44;30.59;98436.38;4998713;28;1332;-76
2023/05/10 00:14:34;;;;;;;;;;;;;;;21.24;30.90;98447.66;5015245;28;1126;-76
2023/05/10 00:16:59;;;;;;;;;;;;;;;21.25;31.17;98446.41;5033613;28;1696;-75
2023/05/10 00:19:25;;;;;;;;;;;;;;;21.38;30.80;98442.97;5018461;28;1898;-75
2023/05/10 00:21:50;;;;;;;;;;;;;;;21.41;31.04;98442.13;5067465;28;927;-76
2023/05/10 00:24:16;;;;;;;;;;;;;;;21.42;30.79;98438.84;5054130;28;1030;-75
2023/05/10 00:26:42;;;;;;;;;;;;;;;21.39;30.76;98439.72;5054437;28;1044;-76
2023/05/10 00:29:08;;;;;;;;;;;;;;;21.61;30.40;98434.47;5021481;28;1142;-75
2023/05/10 00:31:33;;;;;;;;;;;;;;;21.61;30.35;98417.47;5010704;28;1924;-76
2023/05/10 00:33:59;;;;;;;;;;;;;;;21.55;30.32;98436.16;4995303;28;1214;-76
2023/05/10 00:36:24;;;;;;;;;;;;;;;21.46;30.56;98433.94;4995336;28;1219;-76
2023/05/10 00:38:50;;;;;;;;;;;;;;;21.30;30.73;98431.81;4994974;28;1971;-76
2023/05/10 00:41:16;;;;;;;;;;;;;;;21.58;30.30;98421.94;4979204;28;1140;-75
2023/05/10 00:43:43;;;;;;;;;;;;;;;22.13;29.56;98421.69;4964734;28;1068;-76
2023/05/10 00:46:09;;;;;;;;;;;;;;;22.48;29.03;98417.22;4992064;28;1350;-75
2023/05/10 00:48:34;;;;;;;;;;;;;;;22.16;29.26;98427.25;4994705;28;1134;-76
2023/05/10 00:51:00;;;;;;;;;;;;;;;21.73;29.81;98424.50;4995342;28;994;-76
2023/05/10 00:53:26;;;;;;;;;;;;;;;21.54;29.71;98421.22;4996593;28;1231;-76
2023/05/10 00:55:51;;;;;;;;;;;;;;;21.53;30.13;98413.16;5012994;28;1194;-76
2023/05/10 00:58:17;;;;;;;;;;;;;;;22.04;29.71;98413.72;5033920;28;1898;-75
2023/05/10 01:00:45;;;;;;;;;;;;;;;22.25;29.42;98421.78;5013741;28;1518;-76
2023/05/10 01:03:11;;;;;;;;;;;;;;;22.27;29.22;98410.78;5014322;28;974;-76
2023/05/10 01:05:37;;;;;;;;;;;;;;;21.87;29.50;98400.75;4998131;28;1039;-76
2023/05/10 01:08:02;;;;;;;;;;;;;;;21.56;29.43;98407.44;5026197;28;1389;-76
2023/05/10 01:10:29;;;;;;;;;;;;;;;21.65;29.65;98411.72;5016254;28;1267;-76
2023/05/10 01:12:54;;;;;;;;;;;;;;;21.67;29.87;98404.41;5017549;28;1280;-76
2023/05/10 01:15:20;;;;;;;;;;;;;;;21.52;30.25;98403.09;5034082;28;1201;-76
2023/05/10 01:17:45;;;;;;;;;;;;;;;21.79;29.47;98412.22;5014201;28;1186;-75
2023/05/10 01:20:11;;;;;;;;;;;;;;;21.59;30.04;98408.59;5033856;28;1983;-75
2023/05/10 01:22:42;;;;;;;;;;;;;;;21.33;30.61;98415.97;5046678;28;1747;-76
2023/05/10 01:25:25;;;;;;;;;;;;;;;21.70;30.09;98409.16;5070715;28;951;-75
2023/05/10 01:28:11;;;;;;;;;;;;;;;21.41;30.38;98408.16;5070207;28;929;-76
2023/05/10 01:30:55;;;;;;;;;;;;;;;21.40;30.36;98413.03;5053722;28;1131;-76
2023/05/10 01:33:25;;;;;;;;;;;;;;;21.08;31.11;98413.56;5053313;28;1090;-76
2023/05/10 01:36:11;;;;;;;;;;;;;;;21.23;30.71;98414.09;5038280;28;1438;-76
2023/05/10 01:38:42;;;;;;;;;;;;;;;21.67;30.12;98409.25;5072564;28;1909;-76
2023/05/10 01:41:07;;;;;;;;;;;;;;;22.18;29.29;98413.44;5072830;28;1486;-75
2023/05/10 01:43:37;;;;;;;;;;;;;;;21.91;29.17;98407.13;5073762;28;989;-75
2023/05/10 01:46:10;;;;;;;;;;;;;;;21.92;29.10;98408.75;5053462;28;1182;-76
2023/05/10 01:48:36;;;;;;;;;;;;;;;21.39;29.97;98408.56;5008449;28;1167;-75
2023/05/10 01:51:02;;;;;;;;;;;;;;;21.39;30.20;98410.59;5013813;28;1166;-75
2023/05/10 01:53:27;;;;;;;;;;;;;;;21.41;30.10;98425.16;5029974;28;1334;-76
2023/05/10 01:55:53;;;;;;;;;;;;;;;21.35;30.44;98415.53;5027965;28;1468;-75
2023/05/10 01:58:27;;;;;;;;;;;;;;;21.43;30.19;98405.69;5013649;28;1879;-76
2023/05/10 02:00:53;;;;;;;;;;;;;;;21.52;30.16;98403.09;5011876;28;1449;-75
2023/05/10 02:03:18;;;;;;;;;;;;;;;21.64;29.74;98401.63;5013561;28;1138;-76
2023/05/10 02:05:44;;;;;;;;;;;;;;;21.41;30.28;98413.81;5013634;28;1378;-76
2023/05/10 02:08:10;;;;;;;;;;;;;;;21.16;30.87;98408.59;5001327;28;1026;-75
2023/05/10 02:10:36;;;;;;;;;;;;;;;21.77;29.89;98397.72;4994232;28;1003;-76
2023/05/10 02:13:01;;;;;;;;;;;;;;;22.21;29.06;98400.44;4993855;28;1512;-75
2023/05/10 02:15:27;;;;;;;;;;;;;;;22.45;28.50;98389.75;4992618;28;1456;-76
2023/05/10 02:17:54;;;;;;;;;;;;;;;21.93;29.48;98399.00;4994207;28;1195;-75
2023/05/10 02:20:20;;;;;;;;;;;;;;;21.67;29.59;98395.91;5047934;28;1969;-76
2023/05/10 02:22:45;;;;;;;;;;;;;;;21.63;29.26;98398.00;5056594;28;1127;-76
2023/05/10 02:25:12;;;;;;;;;;;;;;;21.98;29.13;98401.31;5094889;28;1192;-75
2023/05/10 02:27:37;;;;;;;;;;;;;;;21.61;30.08;98403.31;5094736;28;898;-75
2023/05/10 02:30:03;;;;;;;;;;;;;;;21.57;30.01;98406.19;5077194;28;1949;-76
2023/05/10 02:32:29;;;;;;;;;;;;;;;21.65;29.86;98406.84;5112241;28;914;-76
2023/05/10 02:34:55;;;;;;;;;;;;;;;21.61;29.99;98406.16;5094690;28;1265;-76
2023/05/10 02:37:21;;;;;;;;;;;;;;;21.44;30.28;98407.28;5080086;28;1217;-75
2023/05/10 02:39:47;;;;;;;;;;;;;;;21.66;29.90;98402.81;5063425;28;1969;-75
2023/05/10 02:42:13;;;;;;;;;;;;;;;21.38;30.23;98409.00;5060025;28;1020;-76
2023/05/10 02:44:39;;;;;;;;;;;;;;;21.43;30.35;98403.66;5059410;28;1447;-76
2023/05/10 02:47:05;;;;;;;;;;;;;;;21.22;30.76;98404.81;5059937;28;1216;-75
2023/05/10 02:49:30;;;;;;;;;;;;;;;21.93;29.48;98399.00;5059939;28;1119;-76
2023/05/10 02:51:56;;;;;;;;;;;;;;;21.93;29.38;98394.13;5058149;28;1446;-75
2023/05/10 02:54:24;;;;;;;;;;;;;;;22.35;29.04;98397.28;5039870;28;962;-76
2023/05/10 02:56:54;;;;;;;;;;;;;;;21.63;29.87;98397.19;5039960;28;1001;-76
2023/05/10 02:59:19;;;;;;;;;;;;;;;21.40;29.97;98401.69;5039610;28;1902;-75
2023/05/10 03:01:45;;;;;;;;;;;;;;;21.59;29.65;98391.59;5047409;28;1407;-75
2023/05/10 03:04:11;;;;;;;;;;;;;;;21.78;29.69;98398.50;5059733;28;926;-75
2023/05/10 03:06:37;;;;;;;;;;;;;;;21.58;29.95;98399.31;5059589;28;1359;-75
2023/05/10 03:09:03;;;;;;;;;;;;;;;21.49;30.13;98398.28;5060155;28;987;-77
2023/05/10 03:11:32;;;;;;;;;;;;;;;21.36;30.44;98411.50;5059487;28;1126;-75
2023/05/10 03:14:01;;;;;;;;;;;;;;;21.07;30.68;98417.63;5059455;28;1157;-76
2023/05/10 03:16:29;;;;;;;;;;;;;;;21.24;30.62;98413.69;5039169;28;1774;-75
2023/05/10 03:18:56;;;;;;;;;;;;;;;21.53;30.23;98404.69;5072661;28;1906;-75
2023/05/10 03:21:22;;;;;;;;;;;;;;;21.72;29.87;98412.38;5056030;28;1185;-76
2023/05/10 03:23:58;;;;;;;;;;;;;;;22.19;29.37;98412.22;5022576;28;1299;-75
2023/05/10 03:26:25;;;;;;;;;;;;;;;22.33;29.04;98411.09;5055950;28;1130;-76
2023/05/10 03:28:56;;;;;;;;;;;;;;;21.95;29.55;98413.50;5051476;28;1328;-75
2023/05/10 03:31:21;;;;;;;;;;;;;;;21.44;29.91;98416.56;5039906;28;1384;-75
2023/05/10 03:33:48;;;;;;;;;;;;;;;21.54;29.64;98409.09;5035885;28;1157;-76
2023/05/10 03:36:15;;;;;;;;;;;;;;;21.38;30.14;98414.69;5054676;28;1165;-76
2023/05/10 03:38:41;;;;;;;;;;;;;;;21.35;30.61;98415.53;5055674;28;1901;-76
2023/05/10 03:41:07;;;;;;;;;;;;;;;21.19;30.59;98442.50;5090203;28;1642;-76
2023/05/10 03:43:32;;;;;;;;;;;;;;;21.33;30.50;98413.94;5058605;28;1129;-75
2023/05/10 03:45:58;;;;;;;;;;;;;;;22.20;29.24;98430.81;5075461;28;1013;-75
2023/05/10 03:48:23;;;;;;;;;;;;;;;22.32;28.92;98420.81;5075523;28;1002;-76
2023/05/10 03:50:49;;;;;;;;;;;;;;;22.55;28.83;98423.53;5042040;28;1066;-76
2023/05/10 03:53:15;;;;;;;;;;;;;;;22.44;29.07;98427.84;5058358;28;1685;-76
2023/05/10 03:55:40;;;;;;;;;;;;;;;22.06;29.11;98431.09;5075245;28;893;-76
2023/05/10 03:58:07;;;;;;;;;;;;;;;20.42;29.53;98222.06;5042061;28;1898;-75
2023/05/10 04:00:33;;;;;;;;;;;;;;;21.73;29.68;98425.31;5072936;28;1329;-76
2023/05/10 04:03:00;;;;;;;;;;;;;;;21.68;29.71;98431.47;5056007;28;1379;-76
2023/05/10 04:05:26;;;;;;;;;;;;;;;21.55;30.08;98430.50;5039824;28;1105;-75
2023/05/10 04:07:52;;;;;;;;;;;;;;;21.66;29.77;98425.47;5058252;28;1053;-75
2023/05/10 04:10:17;;;;;;;;;;;;;;;21.54;29.96;98429.72;5075004;28;1230;-75
2023/05/10 04:12:43;;;;;;;;;;;;;;;21.56;30.16;98437.78;5092982;28;1067;-76
2023/05/10 04:15:08;;;;;;;;;;;;;;;21.51;30.14;98441.13;5078217;28;1108;-75
2023/05/10 04:17:34;;;;;;;;;;;;;;;21.65;30.12;98440.81;5077901;28;962;-76
2023/05/10 04:20:00;;;;;;;;;;;;;;;21.57;30.31;98428.06;5061687;28;1980;-76
2023/05/10 04:22:25;;;;;;;;;;;;;;;21.53;30.20;98441.47;5078061;28;1244;-75
2023/05/10 04:24:51;;;;;;;;;;;;;;;21.29;30.49;98435.81;5061366;28;1033;-76
2023/05/10 04:27:16;;;;;;;;;;;;;;;21.46;30.47;98438.81;5061131;28;912;-76
2023/05/10 04:29:42;;;;;;;;;;;;;;;21.79;29.89;98434.09;5095153;28;967;-76
2023/05/10 04:32:09;;;;;;;;;;;;;;;22.18;29.47;98427.63;5078128;28;1036;-75
2023/05/10 04:34:35;;;;;;;;;;;;;;;22.01;29.70;98440.09;5074405;28;991;-75
2023/05/10 04:37:01;;;;;;;;;;;;;;;21.82;29.77;98434.03;5074932;28;900;-75
2023/05/10 04:39:27;;;;;;;;;;;;;;;21.89;29.75;98432.28;5041279;28;1984;-76
2023/05/10 04:41:52;;;;;;;;;;;;;;;21.45;30.08;98437.19;5056954;28;987;-76
2023/05/10 04:44:18;;;;;;;;;;;;;;;21.64;29.84;98427.13;5057994;28;931;-76
2023/05/10 04:46:43;;;;;;;;;;;;;;;21.72;29.90;98429.38;5058034;28;1170;-76
2023/05/10 04:49:09;;;;;;;;;;;;;;;21.42;30.71;98438.06;5058298;28;984;-76
2023/05/10 04:51:34;;;;;;;;;;;;;;;21.70;29.79;98431.81;5041476;28;937;-75
2023/05/10 04:54:00;;;;;;;;;;;;;;;21.66;30.06;98430.28;5057576;28;1122;-75
2023/05/10 04:56:26;;;;;;;;;;;;;;;21.54;30.28;98437.41;5040882;28;1109;-74
2023/05/10 04:58:51;;;;;;;;;;;;;;;21.24;30.56;98385.41;5057515;28;1910;-74
2023/05/10 05:01:17;;;;;;;;;;;;;;;21.47;30.54;98429.06;5057315;28;1101;-74
2023/05/10 05:03:42;;;;;;;;;;;;;;;21.45;30.66;98425.84;5057581;28;978;-74
2023/05/10 05:06:08;;;;;;;;;;;;;;;21.69;30.38;98424.56;5057089;28;906;-75
2023/05/10 05:08:33;;;;;;;;;;;;;;;21.51;30.54;98424.94;5033793;28;948;-75
2023/05/10 05:10:59;;;;;;;;;;;;;;;21.44;30.64;98432.75;5018982;28;937;-76
2023/05/10 05:13:24;;;;;;;;;;;;;;;21.44;30.89;98429.91;5013749;28;1253;-75
2023/05/10 05:15:50;;;;;;;;;;;;;;;21.41;30.94;98437.25;5014216;28;887;-75
2023/05/10 05:18:15;;;;;;;;;;;;;;;21.58;30.57;98440.97;5014083;28;1971;-75
2023/05/10 05:20:41;;;;;;;;;;;;;;;21.16;31.38;98437.69;5014334;28;955;-74
2023/05/10 05:23:06;;;;;;;;;;;;;;;21.85;30.33;98429.50;4997514;28;967;-75
2023/05/10 05:25:32;;;;;;;;;;;;;;;21.93;30.40;98430.97;5014307;28;1020;-75
2023/05/10 05:27:57;;;;;;;;;;;;;;;22.31;29.55;98436.22;4997562;28;975;-75
2023/05/10 05:30:23;;;;;;;;;;;;;;;21.67;30.25;98432.72;4981456;28;1015;-75
2023/05/10 05:32:48;;;;;;;;;;;;;;;21.74;29.93;98429.72;4997617;28;1324;-75
2023/05/10 05:35:14;;;;;;;;;;;;;;;21.48;30.52;98436.31;4997730;28;1616;-74
2023/05/10 05:37:39;;;;;;;;;;;;;;;21.53;30.46;98435.81;4997630;28;1062;-75
2023/05/10 05:40:05;;;;;;;;;;;;;;;21.72;30.04;98440.69;5013639;28;1906;-75
2023/05/10 05:42:31;;;;;;;;;;;;;;;21.41;30.61;98436.47;5013849;28;995;-75
2023/05/10 05:44:56;;;;;;;;;;;;;;;21.61;30.32;98442.97;5045540;28;993;-75
2023/05/10 05:47:22;;;;;;;;;;;;;;;21.41;30.56;98447.78;5077130;28;959;-75
2023/05/10 05:49:47;;;;;;;;;;;;;;;22.24;30.07;98436.41;5043099;28;1036;-75
2023/05/10 05:52:13;;;;;;;;;;;;;;;22.30;29.76;98435.44;5077029;28;1274;-75
2023/05/10 05:54:38;;;;;;;;;;;;;;;22.58;29.38;98433.19;5039924;28;1106;-76
2023/05/10 05:57:04;;;;;;;;;;;;;;;22.27;29.40;98441.19;5057668;28;1002;-76
2023/05/10 05:59:29;;;;;;;;;;;;;;;21.69;30.12;98441.56;5057435;28;1910;-76
2023/05/10 06:01:55;;;;;;;;;;;;;;;21.63;30.38;98443.31;5041048;28;1063;-75
2023/05/10 06:04:20;;;;;;;;;;;;;;;21.59;30.33;98442.56;5024298;28;1119;-76
2023/05/10 06:06:46;;;;;;;;;;;;;;;21.45;30.73;98443.66;5040947;28;979;-75
2023/05/10 06:09:11;;;;;;;;;;;;;;;21.57;30.27;98442.22;5040951;28;913;-75
2023/05/10 06:11:37;;;;;;;;;;;;;;;21.39;30.52;98444.56;5040510;28;1328;-76
2023/05/10 06:14:07;;;;;;;;;;;;;;;21.75;30.08;98441.84;5040551;28;1118;-76
2023/05/10 06:16:35;;;;;;;;;;;;;;;21.75;30.23;98453.97;5001140;28;1169;-76
2023/05/10 06:19:02;;;;;;;;;;;;;;;21.35;31.05;98444.66;5017265;28;1898;-76
2023/05/10 06:21:27;;;;;;;;;;;;;;;21.53;30.81;98455.63;4997592;28;975;-75
2023/05/10 06:23:53;;;;;;;;;;;;;;;21.82;30.41;98445.34;4997783;28;1204;-75
2023/05/10 06:26:18;;;;;;;;;;;;;;;21.75;30.50;98444.69;5012973;28;995;-75
2023/05/10 06:28:44;;;;;;;;;;;;;;;21.58;30.52;98446.63;5000916;28;930;-76
2023/05/10 06:31:11;;;;;;;;;;;;;;;21.58;30.77;98446.63;5001018;28;1233;-75
2023/05/10 06:33:36;;;;;;;;;;;;;;;21.63;30.75;98442.50;5000755;28;1075;-76
2023/05/10 06:36:02;;;;;;;;;;;;;;;21.95;30.48;98450.34;5000765;28;1008;-75
2023/05/10 06:38:27;;;;;;;;;;;;;;;22.46;29.46;98445.22;5017196;28;1910;-75
2023/05/10 06:40:53;;;;;;;;;;;;;;;22.22;29.77;98455.88;5017071;28;1002;-76
2023/05/10 06:43:18;;;;;;;;;;;;;;;21.62;30.76;98447.38;5000683;28;967;-75
2023/05/10 06:45:44;;;;;;;;;;;;;;;21.57;30.54;98456.38;5000682;28;996;-76
2023/05/10 06:48:09;;;;;;;;;;;;;;;21.55;30.58;98447.50;5048520;28;989;-75
2023/05/10 06:50:35;;;;;;;;;;;;;;;21.50;30.51;98462.97;5023638;28;962;-75
2023/05/10 06:53:01;;;;;;;;;;;;;;;21.67;31.29;98461.03;5040035;28;1047;-75
2023/05/10 06:55:27;;;;;;;;;;;;;;;22.49;29.55;98455.69;5007176;28;1388;-76
2023/05/10 06:57:52;;;;;;;;;;;;;;;22.43;29.58;98454.59;5040364;28;991;-76
2023/05/10 07:00:18;;;;;;;;;;;;;;;21.91;30.44;98458.13;5076271;28;1922;-76
2023/05/10 07:02:44;;;;;;;;;;;;;;;21.58;30.41;98457.97;5059621;28;980;-75
2023/05/10 07:05:09;;;;;;;;;;;;;;;21.57;30.38;98457.16;5075417;28;959;-75
2023/05/10 07:07:35;;;;;;;;;;;;;;;21.69;30.51;98460.59;5043100;28;1170;-76
2023/05/10 07:10:00;;;;;;;;;;;;;;;21.61;30.41;98461.97;5059259;28;960;-76
2023/05/10 07:12:26;;;;;;;;;;;;;;;21.57;30.42;98454.34;5055933;28;1217;-75
2023/05/10 07:14:52;;;;;;;;;;;;;;;21.46;30.67;98467.91;5022746;28;1581;-75
2023/05/10 07:17:17;;;;;;;;;;;;;;;21.66;30.58;98444.47;5055859;28;929;-75
2023/05/10 07:19:43;;;;;;;;;;;;;;;21.33;31.12;98464.88;5056175;28;1906;-75
2023/05/10 07:22:08;;;;;;;;;;;;;;;21.25;31.35;98460.56;5039590;28;927;-75
2023/05/10 07:24:34;;;;;;;;;;;;;;;21.52;30.74;98465.38;5022753;28;1054;-75
2023/05/10 07:26:59;;;;;;;;;;;;;;;21.55;30.65;98458.81;5038970;28;1074;-75
2023/05/10 07:29:25;;;;;;;;;;;;;;;21.62;30.47;98464.38;5019105;28;1265;-75
2023/05/10 07:31:51;;;;;;;;;;;;;;;21.64;30.60;98459.06;5019367;28;971;-75
2023/05/10 07:34:16;;;;;;;;;;;;;;;21.96;30.70;98461.25;5052262;28;1241;-75
2023/05/10 07:36:42;;;;;;;;;;;;;;;22.55;29.51;98468.09;5035736;28;1050;-75
2023/05/10 07:39:07;;;;;;;;;;;;;;;22.49;29.59;98469.88;5019016;28;1902;-75
2023/05/10 07:41:33;;;;;;;;;;;;;;;21.97;30.49;98464.91;5019257;28;890;-75
2023/05/10 07:43:58;;;;;;;;;;;;;;;21.66;30.58;98470.78;5002446;28;955;-75
2023/05/10 07:46:24;;;;;;;;;;;;;;;21.86;30.24;98467.91;5018836;28;880;-76
2023/05/10 07:48:49;;;;;;;;;;;;;;;21.60;30.64;98461.16;5035044;28;908;-75
2023/05/10 07:51:15;;;;;;;;;;;;;;;21.37;31.23;98478.19;5018848;28;1059;-76
2023/05/10 07:53:41;;;;;;;;;;;;;;;21.41;30.89;98476.91;5018735;28;1176;-75
2023/05/10 07:56:23;;;;;;;;;;;;;;;21.32;31.22;98473.81;5018520;28;883;-76
2023/05/10 07:58:48;;;;;;;;;;;;;;;21.33;31.29;98479.03;5018884;28;1910;-75
2023/05/10 08:01:14;;;;;;;;;;;;;;;21.44;30.81;98480.88;5070706;28;943;-76
2023/05/10 08:03:39;;;;;;;;;;;;;;;21.31;31.01;98484.34;5058993;28;1037;-75
2023/05/10 08:06:05;;;;;;;;;;;;;;;21.20;31.41;98478.06;5076355;28;1901;-75
2023/05/10 08:08:31;;;;;;;;;;;;;;;21.59;31.25;98473.72;5077479;28;1216;-76
2023/05/10 08:10:56;;;;;;;;;;;;;;;22.34;30.26;98470.19;5059889;28;1126;-76
2023/05/10 08:13:22;;;;;;;;;;;;;;;22.57;29.71;98476.97;5059307;28;1273;-76
2023/05/10 08:15:48;;;;;;;;;;;;;;;22.35;29.87;98466.09;5076495;28;1262;-75
2023/05/10 08:18:13;;;;;;;;;;;;;;;21.98;30.36;98469.31;5059315;28;1906;-75
2023/05/10 08:20:39;;;;;;;;;;;;;;;21.83;30.55;98480.94;5077329;28;907;-76
2023/05/10 08:23:06;;;;;;;;;;;;;;;21.67;30.59;98480.06;5075630;28;1072;-75
2023/05/10 08:25:32;;;;;;;;;;;;;;;21.37;30.98;98492.34;5059227;28;1130;-75
2023/05/10 08:27:57;;;;;;;;;;;;;;;21.85;30.41;98472.00;5075716;28;958;-76
2023/05/10 08:30:23;;;;;;;;;;;;;;;21.64;30.38;98484.53;5075705;28;909;-75
2023/05/10 08:32:48;;;;;;;;;;;;;;;21.55;30.76;98481.47;5059269;28;1228;-76
2023/05/10 08:35:15;;;;;;;;;;;;;;;21.71;30.39;98492.91;5075467;28;916;-76
2023/05/10 08:37:40;;;;;;;;;;;;;;;22.20;30.44;98493.16;5075597;28;1172;-75
2023/05/10 08:40:06;;;;;;;;;;;;;;;22.49;29.99;98486.88;5075152;28;1992;-75
2023/05/10 08:42:33;;;;;;;;;;;;;;;22.08;30.29;98485.31;5075491;28;980;-76
2023/05/10 08:44:58;;;;;;;;;;;;;;;21.83;30.58;98492.28;5075297;28;944;-76
2023/05/10 08:47:24;;;;;;;;;;;;;;;21.39;31.17;98495.53;5075438;28;967;-76
2023/05/10 08:49:51;;;;;;;;;;;;;;;21.24;31.10;98490.13;5058429;28;964;-76
2023/05/10 08:52:16;;;;;;;;;;;;;;;21.53;30.63;98498.13;5075540;28;969;-76
2023/05/10 08:54:42;;;;;;;;;;;;;;;21.70;30.46;98499.78;5075124;28;907;-76
2023/05/10 08:57:08;;;;;;;;;;;;;;;22.50;29.86;98482.81;5058787;28;1279;-76
2023/05/10 08:59:33;;;;;;;;;;;;;;;22.41;30.02;98485.44;5075286;28;1906;-76
2023/05/10 09:01:59;;;;;;;;;;;;;;;21.97;30.35;98484.72;5074817;28;916;-75
2023/05/10 09:04:25;;;;;;;;;;;;;;;21.64;30.77;98495.06;5058256;28;921;-76
2023/05/10 09:06:50;;;;;;;;;;;;;;;21.70;30.29;98493.34;5056796;28;1206;-76
2023/05/10 09:09:17;;;;;;;;;;;;;;;21.33;30.73;98496.03;5056942;28;946;-75
2023/05/10 09:11:43;;;;;;;;;;;;;;;21.40;30.76;98497.13;5037063;28;1179;-76
2023/05/10 09:14:09;;;;;;;;;;;;;;;21.45;30.42;98496.63;5037124;28;1217;-75
2023/05/10 09:16:34;;;;;;;;;;;;;;;21.93;30.27;98484.78;5037340;28;927;-76
2023/05/10 09:19:00;;;;;;;;;;;;;;;21.74;30.22;98494.88;5036944;28;1902;-76
2023/05/10 09:21:26;;;;;;;;;;;;;;;21.90;29.91;98490.53;5037026;28;962;-76
2023/05/10 09:23:54;;;;;;;;;;;;;;;21.76;30.16;98492.41;5037091;28;1127;-76
2023/05/10 09:26:23;;;;;;;;;;;;;;;21.61;30.21;98493.94;5070272;28;995;-76
2023/05/10 09:28:55;;;;;;;;;;;;;;;21.26;30.33;98492.50;5036265;28;1033;-76
2023/05/10 09:31:21;;;;;;;;;;;;;;;21.66;29.81;98487.75;5036835;28;957;-75
2023/05/10 09:33:47;;;;;;;;;;;;;;;21.55;29.64;98487.13;5036843;28;975;-76
2023/05/10 09:36:13;;;;;;;;;;;;;;;21.54;29.78;98485.53;5037072;28;1152;-75
2023/05/10 09:38:45;;;;;;;;;;;;;;;21.66;30.14;98492.59;5053091;28;1902;-76
2023/05/10 09:41:17;;;;;;;;;;;;;;;22.01;29.22;98479.78;5023954;28;1236;-76
2023/05/10 09:43:43;;;;;;;;;;;;;;;21.97;29.48;98484.72;5056605;28;929;-76
2023/05/10 09:46:09;;;;;;;;;;;;;;;21.62;29.52;98489.06;5056485;28;913;-76
2023/05/10 09:48:35;;;;;;;;;;;;;;;21.51;29.83;98497.75;5026324;28;1182;-75
2023/05/10 09:51:00;;;;;;;;;;;;;;;21.58;29.34;98497.63;5071608;28;1069;-75
2023/05/10 09:53:26;;;;;;;;;;;;;;;21.47;29.75;98497.00;5074412;28;983;-76
2023/05/10 09:55:51;;;;;;;;;;;;;;;21.25;30.04;98497.38;5076012;28;951;-75
2023/05/10 09:58:17;;;;;;;;;;;;;;;21.64;29.91;98501.53;5075796;28;1969;-75
2023/05/10 10:00:43;;;;;;;;;;;;;;;22.02;28.80;98498.38;5057761;28;1233;-75
2023/05/10 10:03:12;;;;;;;;;;;;;;;21.96;28.81;98489.56;5074683;28;896;-75
2023/05/10 10:05:39;;;;;;;;;;;;;;;21.88;29.05;98490.97;5074335;28;898;-76
2023/05/10 10:08:05;;;;;;;;;;;;;;;21.56;29.41;98483.09;5039943;28;1232;-76
2023/05/10 10:10:31;;;;;;;;;;;;;;;21.62;29.10;98495.53;5056551;28;901;-76
2023/05/10 10:12:57;;;;;;;;;;;;;;;21.24;29.69;98492.94;5039660;28;1203;-75
2023/05/10 10:15:23;;;;;;;;;;;;;;;21.59;28.81;98487.88;5053755;28;2181;-76
2023/05/10 10:17:49;;;;;;;;;;;;;;;21.37;29.24;98500.84;5019930;28;1067;-75
2023/05/10 10:20:15;;;;;;;;;;;;;;;21.44;29.13;98490.16;5036502;28;1971;-76
2023/05/10 10:22:40;;;;;;;;;;;;;;;21.84;28.85;98502.38;5032703;28;921;-75
2023/05/10 10:25:07;;;;;;;;;;;;;;;22.02;28.75;98487.84;5016799;28;966;-76
2023/05/10 10:27:36;;;;;;;;;;;;;;;21.69;29.16;98498.19;5000406;28;981;-75
2023/05/10 10:30:04;;;;;;;;;;;;;;;21.66;28.99;98496.25;5016673;28;1245;-75
2023/05/10 10:32:56;;;;;;;;;;;;;;;21.45;29.32;98502.28;4993555;28;939;-76
2023/05/10 10:35:21;;;;;;;;;;;;;;;21.28;29.30;98490.81;4916711;29;1041;-75
2023/05/10 10:37:48;;;;;;;;;;;;;;;21.05;29.70;98494.47;4897696;29;1130;-76
2023/05/10 10:40:40;;;;;;;;;;;;;;;21.69;29.03;98498.19;4902472;29;2054;-76
2023/05/10 10:43:21;;;;;;;;;;;;;;;21.96;28.60;98494.44;4900786;29;1047;-76
2023/05/10 10:46:05;;;;;;;;;;;;;;;21.64;28.84;98495.88;4904306;29;1381;-76
2023/05/10 10:48:31;;;;;;;;;;;;;;;21.51;29.08;98497.75;4904558;29;1074;-75
2023/05/10 10:50:57;;;;;;;;;;;;;;;21.41;28.89;98487.44;4901183;29;973;-76
2023/05/10 10:53:25;;;;;;;;;;;;;;;21.58;28.48;98497.63;4885389;29;967;-76
2023/05/10 10:55:52;;;;;;;;;;;;;;;21.56;28.50;98494.44;4901185;29;924;-76
2023/05/10 10:58:31;;;;;;;;;;;;;;;21.48;28.91;98504.28;4869936;29;1907;-76
2023/05/10 11:01:29;;;;;;;;;;;;;;;22.05;28.14;98492.63;4885208;29;1095;-75
2023/05/10 11:04:14;;;;;;;;;;;;;;;22.00;27.95;98498.00;4882217;29;962;-76
2023/05/10 11:06:40;;;;;;;;;;;;;;;21.70;28.36;98496.16;4851091;29;1509;-75
2023/05/10 11:09:08;;;;;;;;;;;;;;;21.75;28.12;98502.13;4860344;29;1013;-75
2023/05/10 11:11:34;;;;;;;;;;;;;;;21.41;29.04;98498.75;4899367;29;1304;-76
2023/05/10 11:14:03;;;;;;;;;;;;;;;21.16;28.97;98497.13;4949044;29;917;-76
2023/05/10 11:16:29;;;;;;;;;;;;;;;21.26;28.97;98498.97;4954424;29;1056;-75
2023/05/10 11:18:57;;;;;;;;;;;;;;;21.33;29.08;98490.38;4928738;28;1906;-75
2023/05/10 11:21:23;;;;;;;;;;;;;;;21.83;28.41;98492.28;4987405;28;1019;-75
2023/05/10 11:23:50;;;;;;;;;;;;;;;22.00;28.24;98498.00;4999872;28;1051;-76
2023/05/10 11:26:15;;;;;;;;;;;;;;;21.61;28.61;98508.09;4999414;28;1364;-75
2023/05/10 11:28:42;;;;;;;;;;;;;;;21.41;28.87;98493.09;4983421;28;1139;-75
2023/05/10 11:31:07;;;;;;;;;;;;;;;21.46;28.80;98501.09;4999726;28;963;-76
2023/05/10 11:33:42;;;;;;;;;;;;;;;21.33;28.94;98493.19;5015891;28;1022;-75
2023/05/10 11:36:10;;;;;;;;;;;;;;;21.44;28.96;98492.22;4999686;28;958;-76
2023/05/10 11:38:36;;;;;;;;;;;;;;;21.95;28.34;98495.69;5005238;28;1902;-75
2023/05/10 11:41:02;;;;;;;;;;;;;;;21.76;28.68;98492.41;5073223;28;1218;-75
2023/05/10 11:43:30;;;;;;;;;;;;;;;21.78;28.32;98501.28;5056060;28;1620;-76
2023/05/10 11:45:56;;;;;;;;;;;;;;;21.51;28.83;98492.09;5056428;28;1244;-75
2023/05/10 11:48:23;;;;;;;;;;;;;;;21.47;28.54;98488.53;5072857;28;1307;-75
2023/05/10 11:50:49;;;;;;;;;;;;;;;21.43;28.77;98482.13;5055997;28;989;-75
2023/05/10 11:53:15;;;;;;;;;;;;;;;21.20;29.14;98489.38;5072994;28;978;-75
2023/05/10 11:55:40;;;;;;;;;;;;;;;21.50;28.92;98501.78;5057743;28;889;-75
2023/05/10 11:58:06;;;;;;;;;;;;;;;21.79;28.29;98488.69;5089749;28;896;-75
2023/05/10 12:00:31;;;;;;;;;;;;;;;21.91;27.92;98478.75;5073008;28;1918;-76
2023/05/10 12:02:57;;;;;;;;;;;;;;;21.77;28.21;98479.84;5055121;28;1241;-76
2023/05/10 12:05:23;;;;;;;;;;;;;;;21.49;28.42;98489.69;5038161;28;927;-75
2023/05/10 12:07:48;;;;;;;;;;;;;;;21.36;28.84;98490.75;5038469;28;909;-75
2023/05/10 12:10:14;;;;;;;;;;;;;;;21.41;28.57;98478.94;5038189;28;1264;-76
2023/05/10 12:12:41;;;;;;;;;;;;;;;21.31;28.88;98484.34;5038256;28;1143;-76
2023/05/10 12:15:22;;;;;;;;;;;;;;;21.64;28.35;98483.75;5038592;28;1043;-75
2023/05/10 12:17:47;;;;;;;;;;;;;;;21.26;28.87;98481.97;5055072;28;1013;-75
2023/05/10 12:20:14;;;;;;;;;;;;;;;21.18;28.89;98488.97;5038047;28;1906;-76
2023/05/10 12:22:40;;;;;;;;;;;;;;;21.94;27.85;98480.72;5038480;28;1038;-76
2023/05/10 12:25:07;;;;;;;;;;;;;;;22.15;27.66;98467.38;5037975;28;1125;-76
2023/05/10 12:27:33;;;;;;;;;;;;;;;22.08;27.75;98468.31;5038526;28;980;-75
2023/05/10 12:29:59;;;;;;;;;;;;;;;21.62;28.39;98464.38;5054634;28;1083;-75
2023/05/10 12:32:37;;;;;;;;;;;;;;;21.48;28.63;98470.28;5037841;28;966;-75
2023/05/10 12:35:03;;;;;;;;;;;;;;;21.31;28.62;98467.38;5054497;28;988;-76
2023/05/10 12:37:29;;;;;;;;;;;;;;;21.00;29.44;98465.88;5054256;28;1023;-75
2023/05/10 12:39:54;;;;;;;;;;;;;;;21.74;28.00;98455.22;5054681;28;1910;-76
2023/05/10 12:42:20;;;;;;;;;;;;;;;21.94;27.72;98452.38;5089236;28;1060;-76
2023/05/10 12:44:46;;;;;;;;;;;;;;;21.99;27.59;98448.25;5088904;28;898;-76
2023/05/10 12:47:11;;;;;;;;;;;;;;;21.52;28.23;98456.88;5088790;28;925;-76
2023/05/10 12:49:37;;;;;;;;;;;;;;;21.67;27.81;98455.38;5088797;28;950;-75
2023/05/10 12:52:03;;;;;;;;;;;;;;;21.38;28.15;98448.66;5071899;28;935;-75
2023/05/10 12:54:28;;;;;;;;;;;;;;;21.53;28.06;98445.09;5055116;28;1220;-75
2023/05/10 12:56:54;;;;;;;;;;;;;;;21.66;28.36;98447.28;5088761;28;916;-75
2023/05/10 12:59:20;;;;;;;;;;;;;;;21.85;27.74;98438.81;5071907;28;1906;-75